Accueil
METAR-TAF:

METAR-TAF

Aéroports :

Le Havre, France

Aéroport du Havre-Octeville

latitude: 49-31N, longitude: 000-04E, altitude: 100 m

Observation

Le bulletin a été fait il y a 34 minutes, à 22:00 UTC
Vent 9 kt de ouest, variant entre sud/sud-ouest et ouest
Température 8°C
Humidité 81%
Pression 1018 hPa
Visibilité 10 km ou plus
Ciel couvert à une hauteur de 2700 ft

METAR: LFOH 272200Z AUTO 26009KT 210V280 9999 OVC027 08/05 Q1018

Heure: 00:34 (22:34 UTC)

Prévision

Le bulletin a été fait il y a 11 heures et 34 minutes, à 11:00 UTC
Prévision valable du 27 à 12 UTC au 28 à 12 UTC
Vent 8 kt de nord/nord-ouest
Visibilité 10 km ou plus
Nuages épars à une hauteur de 3000 ft
Temporairement
du 27 à 21 UTC au 28 à 10 UTC
Visibilité: 3000 m
Nuages fragmentés à une hauteur de 700 ft
Nuages fragmentés à une hauteur de 1500 ft, Cumulonimbus.
averses de pluie

TAF: LFOH 271100Z 2712/2812 33008KT 9999 SCT030 TEMPO 2721/2810 3000 SHRA BKN007 BKN015CB

Observations et prévisions météorologiques de plus de 4000 aéroports (messages METAR et TAF).

Les stations disponibles sont représentées par des disques jaunes et rouges sur la carte.

Passer la souris dessus pour voir le nom de la station.

Cliquer dessus pour voir les observations et prévisions météorologiques.

Pour changer de carte: cliquez sur les boutons verts avec une croix noire pour zoomer, sur le bouton vert avec un tiret pour effectuer un zoom arrière, ou sur les flèches vertes pour les cartes adjacentes.


METAR-TAF: